Time;durP1;ratioP1;P1;durP2;ratioP2;P2;SDS_P1;SDS_P2;PMS_P1;PMS_P2;Temp;Humidity;BMP_temperature;BMP_pressure;BME280_temperature;BME280_humidity;BME280_pressure;Samples;Min_cycle;Max_cycle;Signal;HPM_P1;HPM_P2
2023/12/21 00:00:02;;;;;;;5.90;2.37;;;;;;;3.66;81.55;99055.03;5003779;28;20218;-59
2023/12/21 00:02:29;;;;;;;5.30;2.47;;;;;;;3.68;81.55;99060.97;4988587;28;20219;-59
2023/12/21 00:04:58;;;;;;;5.73;2.77;;;;;;;3.64;81.46;99061.81;4998808;28;20204;-61
2023/12/21 00:07:27;;;;;;;7.83;2.90;;;;;;;3.62;81.10;99049.09;5001239;28;20200;-59
2023/12/21 00:09:56;;;;;;;4.80;2.53;;;;;;;3.65;81.78;99043.16;4996179;28;20208;-59
2023/12/21 00:12:24;;;;;;;5.70;2.77;;;;;;;3.66;81.42;99052.47;4997506;28;20227;-60
2023/12/21 00:14:52;;;;;;;6.13;2.80;;;;;;;3.63;81.13;99049.94;4996878;28;20295;-58
2023/12/21 00:17:21;;;;;;;5.50;2.90;;;;;;;3.59;81.37;99027.84;4999650;28;20295;-58
2023/12/21 00:19:49;;;;;;;6.37;2.80;;;;;;;3.58;81.45;99033.81;4996571;28;20230;-61
2023/12/21 00:22:22;;;;;;;3.73;2.30;;;;;;;3.57;81.64;99030.41;4994998;28;20756;-59
2023/12/21 00:24:50;;;;;;;5.00;2.43;;;;;;;3.57;81.77;99038.06;5000077;28;20705;-60
2023/12/21 00:27:18;;;;;;;4.73;2.80;;;;;;;3.57;81.33;99030.41;4993976;28;20695;-61
2023/12/21 00:29:46;;;;;;;8.07;3.17;;;;;;;3.55;81.82;99024.47;5000091;28;20204;-59
2023/12/21 00:32:14;;;;;;;6.87;2.80;;;;;;;3.54;81.40;99029.56;4995763;28;20636;-60
2023/12/21 00:34:43;;;;;;;5.70;2.50;;;;;;;3.53;81.85;99040.56;5007104;28;20210;-59
2023/12/21 00:37:11;;;;;;;7.03;3.13;;;;;;;3.52;81.80;99026.16;5006372;28;20238;-60
2023/12/21 00:39:39;;;;;;;8.07;3.10;;;;;;;3.51;82.10;99014.28;4995215;28;20204;-60
2023/12/21 00:42:07;;;;;;;6.80;2.77;;;;;;;3.51;81.79;99034.66;5001328;28;20302;-58
2023/12/21 00:44:35;;;;;;;4.93;2.80;;;;;;;3.51;81.68;99044.84;4996506;28;20211;-59
2023/12/21 00:47:06;;;;;;;6.93;2.87;;;;;;;3.51;81.84;99034.66;4996235;28;20199;-60
2023/12/21 00:49:34;;;;;;;7.10;2.97;;;;;;;3.53;82.35;99025.31;4994801;28;20267;-60
2023/12/21 00:52:03;;;;;;;5.33;3.10;;;;;;;3.55;82.26;99021.06;4997940;28;20200;-59
2023/12/21 00:54:31;;;;;;;6.00;2.97;;;;;;;3.55;82.25;99027.00;4994456;28;20207;-59
2023/12/21 00:56:59;;;;;;;7.50;3.37;;;;;;;3.52;82.40;99026.16;4993760;28;20239;-59
2023/12/21 00:59:27;;;;;;;5.77;2.93;;;;;;;3.48;82.47;99029.56;4994560;28;20203;-59
2023/12/21 01:01:55;;;;;;;4.93;3.00;;;;;;;3.44;82.22;99022.75;4998982;28;20215;-60
2023/12/21 01:04:24;;;;;;;8.43;3.10;;;;;;;3.41;82.71;99022.75;4994254;28;20211;-60
2023/12/21 01:06:52;;;;;;;7.20;3.10;;;;;;;3.42;83.14;99021.91;4996805;28;20207;-59
2023/12/21 01:09:22;;;;;;;11.53;3.37;;;;;;;3.43;82.76;99021.91;4995359;28;20200;-59
2023/12/21 01:11:50;;;;;;;8.07;3.40;;;;;;;3.44;82.53;99010.03;5005240;28;20209;-60
2023/12/21 01:14:18;;;;;;;6.13;2.87;;;;;;;3.46;83.16;99015.97;4992169;28;20303;-60
2023/12/21 01:16:46;;;;;;;6.97;3.20;;;;;;;3.48;82.95;98997.28;4994605;28;21616;-59
2023/12/21 01:19:14;;;;;;;10.20;3.27;;;;;;;3.49;82.82;99005.78;4992871;28;20215;-60
2023/12/21 01:21:42;;;;;;;10.37;3.70;;;;;;;3.51;83.00;99004.94;4992650;28;20769;-62
2023/12/21 01:24:10;;;;;;;8.13;3.60;;;;;;;3.51;82.32;99004.09;4990773;28;20647;-59
2023/12/21 01:26:39;;;;;;;7.10;3.17;;;;;;;3.50;82.48;98989.63;4992234;28;20211;-59
2023/12/21 01:29:07;;;;;;;9.00;3.27;;;;;;;3.47;82.56;98993.06;4998594;28;20251;-61
2023/12/21 01:31:35;;;;;;;7.47;3.10;;;;;;;3.47;82.57;98992.22;4993510;28;20204;-58
2023/12/21 01:34:05;;;;;;;10.73;3.67;;;;;;;3.47;82.44;98995.59;4997665;28;20215;-59
2023/12/21 01:36:33;;;;;;;7.53;3.50;;;;;;;3.42;82.31;98991.34;4997433;28;20290;-59
2023/12/21 01:39:01;;;;;;;6.87;3.23;;;;;;;3.43;82.52;98983.72;5000170;28;20235;-57
2023/12/21 01:41:29;;;;;;;8.10;3.33;;;;;;;3.44;82.88;98985.41;4993627;28;20745;-60
2023/12/21 01:43:58;;;;;;;7.53;3.03;;;;;;;3.45;83.03;98978.63;4992681;28;20261;-59
2023/12/21 01:46:26;;;;;;;8.90;3.60;;;;;;;3.44;83.84;98969.28;4997750;28;20203;-60
2023/12/21 01:48:54;;;;;;;5.20;2.87;;;;;;;3.43;83.82;98960.81;4998796;28;20680;-62
2023/12/21 01:51:23;;;;;;;6.47;3.50;;;;;;;3.44;83.66;98966.75;5003458;28;20207;-58
2023/12/21 01:53:52;;;;;;;8.83;3.40;;;;;;;3.43;83.88;98972.69;5003630;28;20251;-57
2023/12/21 01:56:20;;;;;;;11.33;3.50;;;;;;;3.44;84.25;98967.59;4999388;28;20544;-58
2023/12/21 01:58:49;;;;;;;6.40;3.03;;;;;;;3.44;84.44;98959.09;5003118;28;20219;-59
2023/12/21 02:01:20;;;;;;;7.87;3.47;;;;;;;3.46;84.47;98967.56;4993058;28;20207;-59
2023/12/21 02:03:48;;;;;;;8.57;3.23;;;;;;;3.47;84.33;98961.66;4993088;28;20204;-58
2023/12/21 02:06:16;;;;;;;8.00;3.47;;;;;;;3.49;84.27;98954.84;5000679;28;20199;-59
2023/12/21 02:08:44;;;;;;;6.93;3.37;;;;;;;3.49;83.96;98955.69;4993679;28;20243;-60
2023/12/21 02:11:12;;;;;;;8.03;3.23;;;;;;;3.50;84.11;98942.13;4990738;28;20202;-59
2023/12/21 02:13:40;;;;;;;6.80;3.33;;;;;;;3.50;83.93;98954.00;4991246;28;20236;-58
2023/12/21 02:16:13;;;;;;;8.63;3.50;;;;;;;3.52;83.59;98944.66;4993337;28;20203;-59
2023/12/21 02:18:43;;;;;;;8.43;4.10;;;;;;;3.53;83.50;98936.16;4994710;28;20242;-59
2023/12/21 02:21:13;;;;;;;7.97;3.77;;;;;;;3.49;83.29;98927.69;4990353;28;20330;-59
2023/12/21 02:23:43;;;;;;;5.50;3.33;;;;;;;3.55;83.33;98929.38;4997545;28;20654;-60
2023/12/21 02:26:13;;;;;;;9.77;4.33;;;;;;;3.57;83.03;98930.22;4991873;28;20207;-61
2023/12/21 02:28:42;;;;;;;8.53;3.70;;;;;;;3.58;83.23;98926.84;4998945;28;20291;-58
2023/12/21 02:31:10;;;;;;;6.80;3.63;;;;;;;3.61;82.81;98922.59;4998469;28;20196;-58
2023/12/21 02:33:38;;;;;;;5.97;3.30;;;;;;;3.62;82.50;98913.25;4998979;28;20658;-60
2023/12/21 02:36:07;;;;;;;8.57;3.70;;;;;;;3.66;82.43;98921.72;4993823;28;20204;-59
2023/12/21 02:38:35;;;;;;;9.90;4.40;;;;;;;3.66;82.82;98901.34;5000170;28;20275;-59
2023/12/21 02:41:03;;;;;;;8.57;3.80;;;;;;;3.68;82.21;98895.38;4991755;28;20208;-59
2023/12/21 02:43:32;;;;;;;9.87;3.77;;;;;;;3.72;82.05;98912.38;4987373;28;20204;-59
2023/12/21 02:46:00;;;;;;;11.43;4.20;;;;;;;3.73;82.02;98908.97;4990734;28;20287;-58
2023/12/21 02:48:29;;;;;;;7.10;3.60;;;;;;;3.73;81.83;98903.88;4997646;28;20203;-59
2023/12/21 02:50:57;;;;;;;8.50;3.77;;;;;;;3.75;81.46;98897.06;4984977;28;20808;-59
2023/12/21 02:53:25;;;;;;;9.50;3.37;;;;;;;3.75;81.77;98893.69;4990726;28;20574;-59
2023/12/21 02:55:53;;;;;;;6.70;3.70;;;;;;;3.75;81.61;98886.88;4997771;28;20207;-58
2023/12/21 02:58:21;;;;;;;7.40;3.67;;;;;;;3.76;81.80;98878.41;4995873;28;20267;-58
2023/12/21 03:00:50;;;;;;;8.17;3.57;;;;;;;3.76;81.79;98875.84;4990760;28;20230;-59
2023/12/21 03:03:18;;;;;;;9.33;3.47;;;;;;;3.76;81.62;98868.22;4989035;28;20208;-58
2023/12/21 03:05:46;;;;;;;7.00;3.67;;;;;;;3.79;81.64;98869.88;4991624;28;20426;-59
2023/12/21 03:08:14;;;;;;;6.47;3.50;;;;;;;3.79;81.64;98863.13;5001615;28;20246;-59
2023/12/21 03:10:42;;;;;;;7.93;3.60;;;;;;;3.80;81.44;98849.50;4996545;28;20203;-58
2023/12/21 03:13:10;;;;;;;8.90;3.40;;;;;;;3.80;81.54;98844.41;5002521;28;20199;-59
2023/12/21 03:15:38;;;;;;;6.43;2.93;;;;;;;3.82;81.36;98847.78;4997162;28;21196;-61
2023/12/21 03:18:07;;;;;;;8.33;3.17;;;;;;;3.83;81.22;98838.47;5002423;28;20226;-59
2023/12/21 03:20:35;;;;;;;7.33;3.30;;;;;;;3.83;81.38;98833.38;4997552;28;20203;-59
2023/12/21 03:23:04;;;;;;;7.13;3.73;;;;;;;3.82;81.21;98829.94;4991968;28;20287;-59
2023/12/21 03:25:32;;;;;;;6.10;2.77;;;;;;;3.83;81.26;98818.94;4992046;28;20637;-64
2023/12/21 03:28:00;;;;;;;7.47;2.90;;;;;;;3.85;81.15;98818.91;4992543;28;20291;-62
2023/12/21 03:30:28;;;;;;;5.23;2.70;;;;;;;3.84;81.54;98809.59;4996453;28;20736;-60
2023/12/21 03:32:56;;;;;;;7.27;2.87;;;;;;;3.84;81.23;98805.34;4986248;28;20303;-59
2023/12/21 03:35:26;;;;;;;7.77;3.00;;;;;;;3.85;81.14;98806.19;4994986;28;20211;-60
2023/12/21 03:37:53;;;;;;;9.30;3.30;;;;;;;3.83;81.05;98798.56;4993964;28;20610;-60
2023/12/21 03:40:21;;;;;;;7.10;3.03;;;;;;;3.84;80.92;98805.34;4998849;28;20218;-59
2023/12/21 03:42:52;;;;;;;8.53;3.10;;;;;;;3.84;81.20;98792.59;4984671;28;20216;-60
2023/12/21 03:45:20;;;;;;;4.43;2.40;;;;;;;3.86;81.00;98790.88;4995332;28;20259;-57
2023/12/21 03:47:49;;;;;;;5.00;2.10;;;;;;;3.86;81.10;98783.22;4990829;28;20311;-60
2023/12/21 03:50:17;;;;;;;6.47;2.13;;;;;;;3.87;81.75;98779.00;4995533;28;20604;-58
2023/12/21 03:52:46;;;;;;;5.90;2.43;;;;;;;3.84;81.56;98771.38;4994305;28;20649;-59
2023/12/21 03:55:14;;;;;;;3.83;2.40;;;;;;;3.86;81.68;98769.63;4996598;28;20314;-64
2023/12/21 03:57:42;;;;;;;7.07;2.93;;;;;;;3.84;82.15;98756.09;4996153;28;20210;-59
2023/12/21 04:00:11;;;;;;;7.60;2.63;;;;;;;3.83;82.00;98762.03;4997524;28;20243;-58
2023/12/21 04:02:39;;;;;;;6.37;2.50;;;;;;;3.82;82.03;98763.72;5003288;28;20226;-59
2023/12/21 04:05:07;;;;;;;6.63;2.53;;;;;;;3.83;82.17;98759.50;4994642;28;20558;-58
2023/12/21 04:07:35;;;;;;;4.33;2.40;;;;;;;3.80;82.46;98750.16;4997285;28;20745;-59
2023/12/21 04:10:05;;;;;;;5.47;2.23;;;;;;;3.79;82.63;98756.09;4998181;28;20306;-58
2023/12/21 04:12:33;;;;;;;5.23;2.60;;;;;;;3.81;82.79;98741.66;5000195;28;20612;-59
2023/12/21 04:15:01;;;;;;;7.23;2.57;;;;;;;3.81;82.80;98741.66;5002914;28;20207;-60
2023/12/21 04:17:29;;;;;;;5.10;2.67;;;;;;;3.80;83.03;98739.97;4991836;28;20211;-58
2023/12/21 04:19:57;;;;;;;4.87;2.57;;;;;;;3.81;83.14;98734.00;4995637;28;20687;-59
2023/12/21 04:22:25;;;;;;;5.83;2.43;;;;;;;3.82;83.30;98737.38;4994226;28;20262;-58
2023/12/21 04:24:53;;;;;;;6.77;3.13;;;;;;;3.81;83.37;98728.06;4994400;28;20235;-59
2023/12/21 04:27:23;;;;;;;5.90;2.47;;;;;;;3.79;83.13;98725.53;4996377;28;20216;-59
2023/12/21 04:29:52;;;;;;;6.27;2.97;;;;;;;3.79;83.75;98725.53;4995647;28;21021;-59
2023/12/21 04:32:20;;;;;;;5.73;2.97;;;;;;;3.79;84.15;98728.09;4998585;28;20656;-58
2023/12/21 04:34:48;;;;;;;6.27;2.50;;;;;;;3.79;83.70;98720.44;4989627;28;20302;-58
2023/12/21 04:37:16;;;;;;;5.00;2.47;;;;;;;3.80;83.88;98711.94;4995161;28;20211;-58
2023/12/21 04:39:44;;;;;;;4.53;2.47;;;;;;;3.80;84.14;98709.38;4989091;28;20260;-58
2023/12/21 04:42:12;;;;;;;7.00;3.20;;;;;;;3.80;84.23;98700.91;5000631;28;20633;-59
2023/12/21 04:44:41;;;;;;;7.17;3.17;;;;;;;3.80;84.23;98696.66;4995151;28;20655;-60
2023/12/21 04:47:10;;;;;;;6.93;3.20;;;;;;;3.80;84.43;98701.75;4994831;28;20212;-58
2023/12/21 04:49:51;;;;;;;5.90;2.70;;;;;;;3.80;84.23;98698.34;4994523;28;20674;-59
2023/12/21 04:52:19;;;;;;;5.93;2.87;;;;;;;3.81;84.44;98700.88;5001833;28;20204;-58
2023/12/21 04:54:48;;;;;;;5.80;2.37;;;;;;;3.80;84.41;98694.09;4995990;28;20671;-59
2023/12/21 04:57:15;;;;;;;7.33;2.93;;;;;;;3.78;84.65;98687.31;4999436;28;20208;-59
2023/12/21 04:59:49;;;;;;;4.50;2.57;;;;;;;3.79;84.75;98684.78;4993746;28;20215;-58
2023/12/21 05:02:17;;;;;;;7.40;3.00;;;;;;;3.79;85.30;98674.59;4991872;28;20215;-59
2023/12/21 05:04:46;;;;;;;7.07;3.13;;;;;;;3.79;84.75;98672.03;4999732;28;20603;-59
2023/12/21 05:07:14;;;;;;;4.33;2.50;;;;;;;3.77;84.61;98667.81;4998294;28;20290;-59
2023/12/21 05:09:42;;;;;;;4.90;2.73;;;;;;;3.73;84.79;98661.88;5005250;28;20285;-59
2023/12/21 05:12:10;;;;;;;5.43;2.63;;;;;;;3.69;85.12;98661.91;4993820;28;20219;-59
2023/12/21 05:14:38;;;;;;;4.63;2.43;;;;;;;3.69;85.21;98654.28;4997003;28;20343;-59
2023/12/21 05:17:08;;;;;;;4.83;2.90;;;;;;;3.66;85.41;98641.56;4993884;28;20267;-60
2023/12/21 05:19:37;;;;;;;3.77;2.60;;;;;;;3.62;85.62;98638.19;4993443;28;20216;-57
2023/12/21 05:22:05;;;;;;;4.13;2.87;;;;;;;3.63;86.21;98643.25;5001342;28;20321;-59
2023/12/21 05:24:33;;;;;;;5.23;3.10;;;;;;;3.65;86.25;98634.78;5007090;28;20238;-58
2023/12/21 05:27:01;;;;;;;7.20;3.10;;;;;;;3.66;86.12;98632.22;4994535;28;20208;-57
2023/12/21 05:29:29;;;;;;;5.93;3.27;;;;;;;3.66;86.13;98627.13;4993107;28;20200;-62
2023/12/21 05:31:57;;;;;;;6.43;3.10;;;;;;;3.66;86.47;98632.22;4989285;28;20208;-59
2023/12/21 05:34:27;;;;;;;6.73;3.57;;;;;;;3.67;87.15;98615.22;4992504;28;20239;-58
2023/12/21 05:36:55;;;;;;;3.73;2.87;;;;;;;3.65;87.28;98610.16;4995627;28;20223;-59
2023/12/21 05:39:22;;;;;;;5.30;3.30;;;;;;;3.63;87.86;98610.13;4987820;28;20220;-59
2023/12/21 05:41:50;;;;;;;3.33;2.60;;;;;;;3.61;88.06;98598.28;4988373;28;20208;-59
2023/12/21 05:44:18;;;;;;;7.67;2.83;;;;;;;3.55;88.35;98601.72;5000050;28;20558;-59
2023/12/21 05:46:46;;;;;;;5.40;3.50;;;;;;;3.52;88.85;98589.00;4999202;28;20571;-59
2023/12/21 05:49:14;;;;;;;3.97;3.30;;;;;;;3.51;89.64;98596.66;4992986;28;20203;-59
2023/12/21 05:51:44;;;;;;;4.07;3.40;;;;;;;3.48;89.83;98592.41;4988683;28;20599;-60
2023/12/21 05:54:12;;;;;;;6.37;3.40;;;;;;;3.46;89.95;98589.06;4989361;28;20678;-56
2023/12/21 05:56:40;;;;;;;4.83;3.40;;;;;;;3.43;89.95;98588.22;4990932;28;20667;-57
2023/12/21 05:59:09;;;;;;;5.23;3.40;;;;;;;3.43;90.64;98593.31;4999364;28;20208;-54
2023/12/21 06:01:38;;;;;;;5.90;3.37;;;;;;;3.44;90.90;98579.72;4990244;28;20212;-57
2023/12/21 06:04:06;;;;;;;8.20;3.47;;;;;;;3.46;90.90;98578.00;4999741;28;20202;-56
2023/12/21 06:06:36;;;;;;;5.20;3.50;;;;;;;3.47;91.16;98575.47;4978188;28;20205;-55
2023/12/21 06:09:07;;;;;;;4.57;2.70;;;;;;;3.47;90.88;98574.63;4992650;28;20570;-59
2023/12/21 06:11:35;;;;;;;4.07;2.57;;;;;;;3.47;91.45;98572.91;4994710;28;20207;-59
2023/12/21 06:14:03;;;;;;;3.53;3.23;;;;;;;3.46;91.63;98572.91;4993901;28;20659;-58
2023/12/21 06:16:31;;;;;;;3.53;3.00;;;;;;;3.44;91.80;98559.34;4995148;28;20701;-61
2023/12/21 06:19:00;;;;;;;5.27;2.87;;;;;;;3.41;91.39;98555.13;4991921;28;20667;-60
2023/12/21 06:21:28;;;;;;;4.27;2.87;;;;;;;3.40;91.52;98556.00;4991801;28;20240;-59
2023/12/21 06:23:56;;;;;;;4.27;3.13;;;;;;;3.36;92.31;98542.44;4995939;28;20614;-60
2023/12/21 06:26:26;;;;;;;4.67;2.90;;;;;;;3.35;92.33;98542.44;4988610;28;20207;-59
2023/12/21 06:28:54;;;;;;;3.50;2.57;;;;;;;3.32;92.62;98542.47;4991552;28;20208;-61
2023/12/21 06:31:23;;;;;;;3.93;2.90;;;;;;;3.30;92.64;98545.00;4985584;28;20205;-59
2023/12/21 06:33:52;;;;;;;2.87;2.57;;;;;;;3.29;92.96;98535.69;4987014;28;20666;-65
2023/12/21 06:36:20;;;;;;;4.57;3.23;;;;;;;3.29;93.52;98534.84;4994733;28;20208;-59
2023/12/21 06:38:48;;;;;;;2.90;2.63;;;;;;;3.26;93.03;98532.31;4992051;28;20654;-60
2023/12/21 06:41:16;;;;;;;3.03;2.40;;;;;;;3.22;93.34;98523.03;4992197;28;20737;-59
2023/12/21 06:43:45;;;;;;;4.20;2.67;;;;;;;3.16;93.57;98528.97;4992208;28;20832;-61
2023/12/21 06:46:13;;;;;;;5.87;2.90;;;;;;;3.13;94.22;98514.59;4999894;28;20685;-59
2023/12/21 06:48:42;;;;;;;4.20;2.83;;;;;;;3.09;95.00;98504.41;4990168;28;20212;-59
2023/12/21 06:51:11;;;;;;;3.00;2.63;;;;;;;3.04;95.47;98508.72;4991827;28;20655;-64
2023/12/21 06:53:39;;;;;;;3.77;2.70;;;;;;;3.00;95.16;98504.50;4990688;28;20708;-59
2023/12/21 06:56:08;;;;;;;2.80;2.50;;;;;;;2.97;95.57;98505.34;4992023;28;20231;-60
2023/12/21 06:58:57;;;;;;;2.73;2.30;;;;;;;2.97;96.33;98494.34;4990630;28;20239;-60
2023/12/21 07:01:26;;;;;;;3.20;2.30;;;;;;;2.97;96.47;98492.63;4991199;28;20219;-59
2023/12/21 07:03:55;;;;;;;3.77;2.57;;;;;;;2.97;96.53;98487.53;4988726;28;20230;-59
2023/12/21 07:06:23;;;;;;;3.37;2.23;;;;;;;2.99;96.24;98479.91;4991512;28;20208;-60
2023/12/21 07:08:51;;;;;;;3.07;2.43;;;;;;;3.00;97.06;98481.59;4991429;28;20269;-59
2023/12/21 07:11:19;;;;;;;2.47;2.27;;;;;;;2.99;96.25;98472.28;4991702;28;20644;-60
2023/12/21 07:13:47;;;;;;;2.50;2.23;;;;;;;2.97;96.66;98473.97;4991697;28;20599;-59
2023/12/21 07:16:17;;;;;;;2.50;2.30;;;;;;;2.96;96.99;98472.31;4991460;28;20199;-61
2023/12/21 07:18:45;;;;;;;3.27;2.50;;;;;;;2.99;97.11;98464.66;4990833;28;20246;-58
2023/12/21 07:21:13;;;;;;;3.13;2.50;;;;;;;3.00;97.22;98451.06;4988169;28;20236;-60
2023/12/21 07:23:41;;;;;;;2.70;2.30;;;;;;;2.98;97.39;98448.50;4989924;28;20722;-60
2023/12/21 07:26:10;;;;;;;2.87;2.63;;;;;;;3.00;97.22;98451.91;4990940;28;20310;-59
2023/12/21 07:28:40;;;;;;;3.10;2.40;;;;;;;3.00;97.44;98441.72;4992570;28;20211;-60
2023/12/21 07:31:09;;;;;;;5.07;2.73;;;;;;;3.00;97.80;98430.72;4991259;28;20303;-57
2023/12/21 07:33:39;;;;;;;4.23;2.50;;;;;;;3.00;98.46;98423.91;4995075;28;20200;-59
2023/12/21 07:36:08;;;;;;;2.57;2.37;;;;;;;3.05;98.23;98413.69;4995267;28;20214;-59
2023/12/21 07:38:36;;;;;;;3.03;2.70;;;;;;;3.08;97.83;98413.69;4993660;28;20212;-61
2023/12/21 07:41:04;;;;;;;2.90;2.60;;;;;;;3.09;97.87;98406.06;4994863;28;20220;-60
2023/12/21 07:43:32;;;;;;;3.13;2.40;;;;;;;3.11;98.09;98403.50;4995429;28;20659;-61
2023/12/21 07:46:00;;;;;;;2.60;2.33;;;;;;;3.12;98.02;98400.06;4994543;28;20239;-59
2023/12/21 07:48:28;;;;;;;3.13;2.50;;;;;;;3.15;98.31;98400.91;4994912;28;20574;-60
2023/12/21 07:50:58;;;;;;;2.57;2.17;;;;;;;3.19;98.07;98404.25;4991727;28;20222;-60
2023/12/21 07:53:25;;;;;;;3.17;2.67;;;;;;;3.20;97.73;98398.31;4993342;28;20718;-60
2023/12/21 07:55:53;;;;;;;4.77;2.83;;;;;;;3.24;97.82;98389.81;4987401;28;20250;-60
2023/12/21 07:58:22;;;;;;;2.80;2.60;;;;;;;3.26;97.51;98382.16;4994102;28;20214;-60
2023/12/21 08:00:50;;;;;;;4.60;3.13;;;;;;;3.25;97.39;98376.22;4994490;28;20212;-61
2023/12/21 08:03:19;;;;;;;3.70;3.00;;;;;;;3.28;97.79;98366.03;4993805;28;20212;-60
2023/12/21 08:05:47;;;;;;;3.37;3.00;;;;;;;3.30;96.98;98364.28;4990765;28;20656;-60
2023/12/21 08:08:17;;;;;;;3.53;3.07;;;;;;;3.35;97.26;98360.00;4994694;28;20290;-60
2023/12/21 08:10:45;;;;;;;3.27;2.70;;;;;;;3.37;96.69;98363.38;4994605;28;20278;-60
2023/12/21 08:13:13;;;;;;;3.20;2.90;;;;;;;3.38;97.28;98354.88;4994228;28;20204;-63
2023/12/21 08:15:41;;;;;;;3.20;2.87;;;;;;;3.41;97.35;98346.38;4994099;28;20217;-61
2023/12/21 08:18:13;;;;;;;4.83;3.03;;;;;;;3.42;96.92;98335.31;4987077;28;20286;-58
2023/12/21 08:20:42;;;;;;;3.47;2.73;;;;;;;3.42;97.61;98342.13;4988347;28;20215;-61
2023/12/21 08:23:11;;;;;;;4.97;3.53;;;;;;;3.44;97.62;98332.78;4996494;28;20219;-60
2023/12/21 08:25:40;;;;;;;3.20;2.90;;;;;;;3.45;97.92;98321.72;4994491;28;20574;-61
2023/12/21 08:28:08;;;;;;;5.00;3.17;;;;;;;3.46;97.51;98326.81;4994467;28;21119;-61
2023/12/21 08:30:36;;;;;;;3.57;2.57;;;;;;;3.47;97.41;98314.91;4994139;28;20212;-60
2023/12/21 08:33:05;;;;;;;2.97;2.67;;;;;;;3.45;97.49;98312.38;4993785;28;20208;-59
2023/12/21 08:35:33;;;;;;;2.93;2.67;;;;;;;3.49;97.51;98308.09;4993531;28;20219;-61
2023/12/21 08:38:01;;;;;;;5.37;2.70;;;;;;;3.49;97.87;98301.28;4993775;28;20208;-58
2023/12/21 08:40:28;;;;;;;3.83;3.27;;;;;;;3.50;97.53;98280.09;4992521;28;20207;-61
2023/12/21 08:42:58;;;;;;;2.80;2.60;;;;;;;3.49;97.22;98282.63;4993784;28;20239;-58
2023/12/21 08:45:26;;;;;;;2.50;2.23;;;;;;;3.50;97.55;98269.03;4993169;28;20208;-60
2023/12/21 08:47:55;;;;;;;2.40;2.20;;;;;;;3.49;97.46;98258.00;4993434;28;20236;-61
2023/12/21 08:50:23;;;;;;;2.17;1.97;;;;;;;3.51;97.27;98260.56;4987998;28;20627;-59
2023/12/21 08:52:51;;;;;;;2.93;2.20;;;;;;;3.51;97.29;98255.47;4999164;28;20207;-60
2023/12/21 08:55:19;;;;;;;1.97;1.70;;;;;;;3.52;97.23;98254.59;4993677;28;20228;-60
2023/12/21 08:57:47;;;;;;;2.30;1.80;;;;;;;3.54;97.42;98237.59;4990516;28;20216;-61
2023/12/21 09:00:18;;;;;;;2.63;2.20;;;;;;;3.55;97.08;98229.09;4993550;28;20255;-59
2023/12/21 09:02:46;;;;;;;2.37;2.17;;;;;;;3.54;97.58;98219.78;4992219;28;20227;-59
2023/12/21 09:05:15;;;;;;;2.07;1.80;;;;;;;3.55;97.48;98226.56;4988129;28;20283;-59
2023/12/21 09:07:44;;;;;;;2.37;1.90;;;;;;;3.55;97.72;98218.91;4992589;28;20220;-59
2023/12/21 09:10:12;;;;;;;2.60;1.90;;;;;;;3.57;97.60;98215.50;4995367;28;20571;-60
2023/12/21 09:12:40;;;;;;;2.47;2.03;;;;;;;3.57;97.64;98209.53;4991637;28;20208;-61
2023/12/21 09:15:09;;;;;;;1.47;1.37;;;;;;;3.56;97.38;98202.75;4991951;28;20302;-59
2023/12/21 09:17:38;;;;;;;2.60;1.60;;;;;;;3.58;97.39;98193.41;4989133;28;20219;-58
2023/12/21 09:20:09;;;;;;;1.90;1.60;;;;;;;3.56;96.38;98184.94;4991840;28;20243;-58
2023/12/21 09:22:37;;;;;;;1.87;1.67;;;;;;;3.59;97.08;98187.44;4989493;28;20239;-59
2023/12/21 09:25:07;;;;;;;1.80;1.70;;;;;;;3.60;96.84;98159.41;4996130;28;20615;-61
2023/12/21 09:27:35;;;;;;;1.60;1.50;;;;;;;3.64;97.46;98155.09;4993183;28;20278;-59
2023/12/21 09:30:05;;;;;;;2.07;1.80;;;;;;;3.68;97.04;98161.84;4996711;28;20294;-62
2023/12/21 09:32:33;;;;;;;1.97;1.80;;;;;;;3.69;97.13;98148.25;4991957;28;20216;-60
2023/12/21 09:35:03;;;;;;;2.20;2.00;;;;;;;3.72;97.06;98148.22;4986399;28;20630;-60
2023/12/21 09:37:32;;;;;;;2.10;1.90;;;;;;;3.75;96.89;98135.41;4995083;28;20204;-62
2023/12/21 09:39:59;;;;;;;1.97;1.50;;;;;;;3.77;96.85;98136.25;4996146;28;20215;-60
2023/12/21 09:42:28;;;;;;;1.83;1.70;;;;;;;3.80;97.01;98120.94;4988677;28;20235;-59
2023/12/21 09:44:56;;;;;;;2.03;1.87;;;;;;;3.83;97.30;98120.88;4993672;28;20259;-60
2023/12/21 09:47:29;;;;;;;1.80;1.70;;;;;;;3.84;96.93;98122.56;4991533;28;20286;-61
2023/12/21 09:49:57;;;;;;;1.90;1.70;;;;;;;3.86;96.82;98110.63;4995758;28;20295;-61
2023/12/21 09:52:27;;;;;;;3.30;2.00;;;;;;;3.86;97.06;98100.44;4988441;28;20204;-59
2023/12/21 09:54:56;;;;;;;2.03;1.80;;;;;;;3.88;97.01;98091.06;4994609;28;20211;-60
2023/12/21 09:57:25;;;;;;;1.70;1.60;;;;;;;3.92;97.01;98094.41;4986835;28;20232;-59
2023/12/21 09:59:56;;;;;;;2.10;1.90;;;;;;;3.95;97.22;98089.28;4985632;28;20267;-58
2023/12/21 10:02:27;;;;;;;2.17;1.87;;;;;;;4.00;97.16;98094.28;4988429;28;20216;-61
2023/12/21 10:04:55;;;;;;;1.77;1.67;;;;;;;4.01;97.25;98073.84;4987935;28;20659;-58
2023/12/21 10:07:25;;;;;;;2.20;2.00;;;;;;;4.01;97.21;98068.75;4996264;28;20203;-60
2023/12/21 10:09:54;;;;;;;2.20;2.00;;;;;;;4.06;97.63;98066.16;4990824;28;20204;-59
2023/12/21 10:12:22;;;;;;;1.87;1.63;;;;;;;4.06;97.46;98053.41;4991789;28;20210;-61
2023/12/21 10:14:59;;;;;;;1.80;1.70;;;;;;;4.07;97.52;98047.44;4996956;28;20200;-60
2023/12/21 10:17:27;;;;;;;2.43;1.70;;;;;;;4.08;97.26;98038.94;4994295;28;20220;-62
2023/12/21 10:19:56;;;;;;;2.30;2.10;;;;;;;4.11;97.60;98038.88;5001490;28;20223;-64
2023/12/21 10:22:24;;;;;;;1.80;1.70;;;;;;;4.13;97.58;98024.41;4990423;28;20335;-60
2023/12/21 10:24:54;;;;;;;3.80;2.03;;;;;;;4.14;97.88;98027.78;4994467;28;20218;-58
2023/12/21 10:27:23;;;;;;;2.60;2.27;;;;;;;4.14;98.62;98021.00;4986305;28;20728;-60
2023/12/21 10:29:55;;;;;;;4.83;2.70;;;;;;;4.14;98.22;98015.06;4990545;28;20216;-61
2023/12/21 10:32:23;;;;;;;2.00;1.80;;;;;;;4.14;98.23;97997.22;4992622;28;20204;-61
2023/12/21 10:34:54;;;;;;;2.30;2.10;;;;;;;4.15;98.95;97993.78;4994606;28;20203;-61
2023/12/21 10:37:22;;;;;;;4.50;2.60;;;;;;;4.16;98.80;97987.81;4994889;28;20254;-63
2023/12/21 10:39:50;;;;;;;2.23;2.03;;;;;;;4.15;98.47;97981.88;4999240;28;20212;-62
2023/12/21 10:42:20;;;;;;;2.33;2.13;;;;;;;4.13;99.05;97970.88;4995283;28;20706;-58
2023/12/21 10:44:49;;;;;;;3.10;2.67;;;;;;;4.14;99.29;97969.19;4991589;28;20662;-59
2023/12/21 10:47:17;;;;;;;2.47;2.27;;;;;;;4.15;99.75;97969.13;4988188;28;20215;-59
2023/12/21 10:49:46;;;;;;;2.30;2.10;;;;;;;4.17;100.00;97956.38;4999845;28;20650;-61
2023/12/21 10:52:16;;;;;;;3.77;2.47;;;;;;;4.17;100.00;97943.63;4996713;28;20215;-62
2023/12/21 10:54:45;;;;;;;3.50;3.00;;;;;;;4.17;100.00;97936.81;4999391;28;20251;-61
2023/12/21 10:57:16;;;;;;;2.40;2.20;;;;;;;4.18;100.00;97933.41;4995305;28;20234;-61
2023/12/21 10:59:48;;;;;;;2.73;2.53;;;;;;;4.18;100.00;97928.31;4991167;28;20564;-60
2023/12/21 11:02:19;;;;;;;3.97;2.53;;;;;;;4.20;100.00;97921.47;4996658;28;20230;-60
2023/12/21 11:04:48;;;;;;;9.07;3.03;;;;;;;4.21;100.00;97912.94;4998949;28;20282;-59
2023/12/21 11:07:17;;;;;;;2.87;2.63;;;;;;;4.24;100.00;97900.16;4987912;28;20204;-61
2023/12/21 11:09:46;;;;;;;3.67;2.57;;;;;;;4.24;100.00;97896.78;4992259;28;20207;-58
2023/12/21 11:12:14;;;;;;;2.63;2.43;;;;;;;4.27;100.00;97881.38;4997178;28;20671;-59
2023/12/21 11:14:42;;;;;;;2.83;2.53;;;;;;;4.29;100.00;97885.59;4999768;28;20589;-62
2023/12/21 11:17:13;;;;;;;2.60;2.40;;;;;;;4.32;100.00;97888.06;4999107;28;20207;-61
2023/12/21 11:19:41;;;;;;;3.17;2.70;;;;;;;4.36;100.00;97879.50;4995044;28;20261;-62
2023/12/21 11:22:10;;;;;;;2.43;2.23;;;;;;;4.39;100.00;97870.94;4997907;28;20731;-61
2023/12/21 11:24:38;;;;;;;2.60;2.40;;;;;;;4.42;100.00;97870.03;4999554;28;20748;-61
2023/12/21 11:27:07;;;;;;;4.33;2.70;;;;;;;4.44;100.00;97863.19;4998674;28;20231;-61
2023/12/21 11:29:36;;;;;;;2.97;2.40;;;;;;;4.44;100.00;97853.00;4998014;28;20203;-61
2023/12/21 11:32:05;;;;;;;3.57;2.60;;;;;;;4.46;100.00;97854.66;4995176;28;20207;-62
2023/12/21 11:34:39;;;;;;;3.80;2.50;;;;;;;4.48;100.00;97839.28;4996096;28;20658;-61
2023/12/21 11:37:17;;;;;;;3.87;2.77;;;;;;;4.51;100.00;97837.50;4999112;28;20347;-60
2023/12/21 11:39:46;;;;;;;2.83;2.60;;;;;;;4.52;100.00;97826.44;4997492;28;20246;-61
2023/12/21 11:42:14;;;;;;;3.50;2.83;;;;;;;4.55;100.00;97811.06;4995163;28;20204;-61
2023/12/21 11:44:48;;;;;;;2.87;2.57;;;;;;;4.57;100.00;97809.34;4997086;28;20236;-62
2023/12/21 11:47:18;;;;;;;4.00;2.47;;;;;;;4.59;100.00;97792.25;5000618;28;20278;-62